AirNav   Duncan Aviation - Near you to keep you flying
 
 1273 users online  

LL80 Darrington Airport
Rockford, Illinois, USA

GOING TO ROCKFORD?


FAA INFORMATION EFFECTIVE 01 DECEMBER 2022

Location

FAA Identifier: LL80
Lat/Long: 42-22-55.0600N 089-09-40.3950W
42-22.917667N 089-09.673250W
42.3819611,-89.1612208
(estimated)
Elevation: 862 ft. / 262.7 m (surveyed)
Variation: 00E (1985)
From city: 7 miles NW of ROCKFORD, IL
Time zone: UTC -6 (UTC -5 during Daylight Saving Time)
Zip code: 61101

Airport Operations

Airport use: Private use. Permission required prior to landing
Activation date: 09/1964
Control tower: no
ARTCC: CHICAGO CENTER
FSS: KANKAKEE FLIGHT SERVICE STATION
Attendance: UNATNDD
Wind indicator: yes
Segmented circle: no

Airport Communications

WX ASOS at RFD (12 nm S): PHONE 815-484-6229
WX AWOS-3 at JVL (15 nm N): PHONE 608-758-1723

Nearby radio navigation aids

VOR radial/distance  VOR name  Freq  Var
JVLr190/10.8JANESVILLE VOR/DME114.3003E
PLLr030/29.7POLO VOR/DME111.2003E

Airport Services

Airframe service: NONE
Powerplant service: MINOR

Runway Information

Runway E/W

Dimensions: 2200 x 90 ft. / 671 x 27 m
Surface: turf
RUNWAY E  RUNWAY W
Traffic pattern: leftleft
Obstructions: bldg, lightednone

Airport Ownership and Management from official FAA records

Ownership: Privately-owned
Owner: WILFRIED JURY
8484 TATE ROAD
ROCKFORD, IL 61101
Phone 815-965-6044

Additional Remarks

ARPT LCTD AT 8484 TATE ROAD.
FOR CD CTC CHICAGO ARTCC AT 630-906-8921.

Instrument Procedures

There are no published instrument procedures at LL80.

Some nearby airports with instrument procedures:

44C - Beloit Airport (11 nm NE)
KRFD - Chicago/Rockford International Airport (12 nm S)
C77 - Poplar Grove Airport (15 nm E)
KJVL - Southern Wisconsin Regional Airport (15 nm N)
KFEP - Albertus Airport (20 nm SW)
 
Loc | Ops | Rwys | IFR | FBO | Links
Com | Nav | Svcs | Stats | Notes
Area around LL80 (Darrington Airport)
 
Road maps at: MapQuest Bing Google
 
Aerial photo
No photo
 
Sectional chart

 
Airport distance calculator
Flying to Darrington Airport? Find the distance to fly.

From to LL80

Sunrise and sunset
Times for 07-Dec-2022
 Local
(UTC-6)
 Zulu
(UTC)
Morning civil twilight06:4212:42
Sunrise07:1313:13
Sunset16:2322:23
Evening civil twilight16:5522:55

Current date and time
Zulu (UTC)  07-Dec-2022 13:50:11
Local (UTC-6)  07-Dec-2022 07:50:11
 
METAR
KRFD 
11nm S 
071254Z 00000KT 5SM BR OVC013 01/M01 A3021 RMK AO2 SLP237 T00111006
KJVL 
15nm NE 
071245Z 00000KT 1/4SM FZFG OVC001 M01/M01 A3018
KFEP 
20nm SW 
071335Z AUTO 00000KT 7SM OVC013 01/01 A3021 RMK AO2 T00110010
TAF
KRFD 
11nm S 
071120Z 0712/0812 VRB03KT 6SM BR OVC010 TEMPO 0712/0715 1SM BR OVC005 FM071800 31005KT P6SM BKN015 FM072100 35005KT P6SM BKN025 FM080100 01005KT P6SM SCT025 BKN100
KJVL 
15nm NE 
071125Z 0712/0812 00000KT 1/4SM FZFG OVC002 FM071500 00000KT 3SM BR OVC011 FM071800 VRB03KT P6SM OVC013 FM072100 33006KT P6SM SCT020 FM080200 02005KT P6SM BKN025 FM080800 VRB03KT 3SM BR FEW009 BKN019
NOTAMs
Click for the latest NOTAMs
NOTAMs are issued by the DoD/FAA and will open in a separate window not controlled by AirNav.

 

 
 

Would you like to see your business listed on this page?

 If your business provides an interesting product or service to pilots, flight crews, aircraft, or users of the Darrington Airport, you should consider listing it here.  To start the listing process, click on the button below
 
Add a business
 

Other Pages about Darrington Airport

Update a link
 
Copyright © AirNav, LLC. All rights reserved. Privacy Policy  Contact